United Leadership — V7EN9 — position and weather

sailwx.info

Track history (hours):
 
Tides and Currents Weather Stations Pressure Air Temp Water Temp Dewpoint Dewpoint Depression Visibility Wind Speed Wind Dir Waves Ship Positions

United Leadership

Last reported at 2017-Nov-05 12:51 UTC. Time now 2017-Nov-24 05:43 UTC.
Position S 33°60' E 017°60'.
Warning: this ship's position is 18 days out of date.

Length 274 m; draft 9.2 m.

Type: Ship. MMSI: 538005502.

Date/timePositionNaut miles runAvg speedWind from/ knotsBaromVisibWave heightAir tempDewpointWater temp
2017-Nov-05 12:51S 33°60' E 017°60'512.9
2017-Nov-05 12:28S 34°04' E 018°01'814.8
2017-Nov-05 11:58S 34°11' E 018°05'815.0
2017-Nov-05 11:27S 34°18' E 018°10'59212.7
2017-Nov-03 12:52S 32°54' E 029°54'514.9
2017-Nov-03 12:30S 32°51' E 029°59'814.9
2017-Nov-03 11:59S 32°49' E 030°08'714.5
2017-Nov-03 11:30S 32°47' E 030°16'1014.2
2017-Nov-03 10:48S 32°43' E 030°27'514.1
2017-Nov-03 10:28S 32°42' E 030°33'3813.3
2017-Nov-03 07:35S 32°23' E 031°12'113.1
2017-Nov-03 07:30S 32°22' E 031°13'1613.2
2017-Nov-03 06:18S 32°17' E 031°30'1412.9
2017-Nov-03 05:13S 32°12' E 031°46'1613.1
2017-Nov-03 03:57S 32°06' E 032°04'913.1
2017-Nov-03 03:15S 32°03' E 032°14'1013.4
2017-Nov-03 02:32S 31°59' E 032°25'013.0
2017-Nov-03 02:30S 31°59' E 032°25'3013.4
2017-Nov-03 00:15S 31°42' E 032°55'1013.6
2017-Nov-02 23:29S 31°38' E 033°06'613.3
2017-Nov-02 23:00S 31°35' E 033°13'613.2
2017-Nov-02 22:30S 31°32' E 033°20'713.4
2017-Nov-02 21:58S 31°29' E 033°28'713.4
2017-Nov-02 21:27S 31°27' E 033°35'613.6
2017-Nov-02 20:59S 31°24' E 033°42'713.5
2017-Nov-02 20:26S 31°21' E 033°50'813.4
2017-Nov-02 19:49S 31°17' E 033°58'413.4
2017-Nov-02 19:30S 31°16' E 034°03'713.4
2017-Nov-02 19:00S 31°13' E 034°10'713.5
2017-Nov-02 18:30S 31°10' E 034°17'713.7
2017-Nov-02 18:00S 31°07' E 034°24'1313.9
2017-Nov-02 17:05S 31°02' E 034°38'114.0
2017-Nov-02 17:00S 31°01' E 034°39'714.1
2017-Nov-02 16:30S 30°59' E 034°46'914.0
2017-Nov-02 15:52S 30°55' E 034°56'714.1
2017-Nov-02 15:23S 30°52' E 035°03'714.1
2017-Nov-02 14:55S 30°49' E 035°10'614.1
2017-Nov-02 14:30S 30°47' E 035°16'714.1
2017-Nov-02 13:59S 30°44' E 035°24'1214.3
2017-Nov-02 13:07S 30°39' E 035°37'214.2
2017-Nov-02 12:58S 30°38' E 035°40'1013.9
2017-Nov-02 12:13S 30°33' E 035°50'313.5
2017-Nov-02 11:58S 30°32' E 035°54'813.4
2017-Nov-02 11:21S 30°29' E 036°03'513.2
2017-Nov-02 11:00S 30°27' E 036°08'712.9
2017-Nov-02 10:29S 30°24' E 036°15'2211.7
2017-Nov-02 08:34S 30°15' E 036°38'112.1
2017-Nov-02 08:27S 30°14' E 036°40'512.1
2017-Nov-02 08:00S 30°11' E 036°45'3412.0
2017-Nov-02 05:11S 29°55' E 037°19'413.0
2017-Nov-02 04:53S 29°56' E 037°23'912.8
2017-Nov-02 04:11S 29°53' E 037°33'513.0
2017-Nov-02 03:48S 29°51' E 037°39'  
Track history (hours):
 
Tides and Currents Weather Stations Pressure Air Temp Water Temp Dewpoint Dewpoint Depression Visibility Wind Speed Wind Dir Waves Ship Positions

United Leadership

Last reported at 2017-Nov-05 12:51 UTC. Time now 2017-Nov-24 05:43 UTC.
Position S 33°60' E 017°60'.
Warning: this ship's position is 18 days out of date.

Length 274 m; draft 9.2 m.

Type: Ship. MMSI: 538005502.

Date/timePositionNaut miles runAvg speedWind from/ knotsBaromVisibWave heightAir tempDewpointWater temp
2017-Nov-05 12:51S 33°60' E 017°60'512.9
2017-Nov-05 12:28S 34°04' E 018°01'814.8
2017-Nov-05 11:58S 34°11' E 018°05'815.0
2017-Nov-05 11:27S 34°18' E 018°10'59212.7
2017-Nov-03 12:52S 32°54' E 029°54'514.9
2017-Nov-03 12:30S 32°51' E 029°59'814.9
2017-Nov-03 11:59S 32°49' E 030°08'714.5
2017-Nov-03 11:30S 32°47' E 030°16'1014.2
2017-Nov-03 10:48S 32°43' E 030°27'514.1
2017-Nov-03 10:28S 32°42' E 030°33'3813.3
2017-Nov-03 07:35S 32°23' E 031°12'113.1
2017-Nov-03 07:30S 32°22' E 031°13'1613.2
2017-Nov-03 06:18S 32°17' E 031°30'1412.9
2017-Nov-03 05:13S 32°12' E 031°46'1613.1
2017-Nov-03 03:57S 32°06' E 032°04'913.1
2017-Nov-03 03:15S 32°03' E 032°14'1013.4
2017-Nov-03 02:32S 31°59' E 032°25'013.0
2017-Nov-03 02:30S 31°59' E 032°25'3013.4
2017-Nov-03 00:15S 31°42' E 032°55'1013.6
2017-Nov-02 23:29S 31°38' E 033°06'613.3
2017-Nov-02 23:00S 31°35' E 033°13'613.2
2017-Nov-02 22:30S 31°32' E 033°20'713.4
2017-Nov-02 21:58S 31°29' E 033°28'713.4
2017-Nov-02 21:27S 31°27' E 033°35'613.6
2017-Nov-02 20:59S 31°24' E 033°42'713.5
2017-Nov-02 20:26S 31°21' E 033°50'813.4
2017-Nov-02 19:49S 31°17' E 033°58'413.4
2017-Nov-02 19:30S 31°16' E 034°03'713.4
2017-Nov-02 19:00S 31°13' E 034°10'713.5
2017-Nov-02 18:30S 31°10' E 034°17'713.7
2017-Nov-02 18:00S 31°07' E 034°24'1313.9
2017-Nov-02 17:05S 31°02' E 034°38'114.0
2017-Nov-02 17:00S 31°01' E 034°39'714.1
2017-Nov-02 16:30S 30°59' E 034°46'914.0
2017-Nov-02 15:52S 30°55' E 034°56'714.1
2017-Nov-02 15:23S 30°52' E 035°03'714.1
2017-Nov-02 14:55S 30°49' E 035°10'614.1
2017-Nov-02 14:30S 30°47' E 035°16'714.1
2017-Nov-02 13:59S 30°44' E 035°24'1214.3
2017-Nov-02 13:07S 30°39' E 035°37'214.2
2017-Nov-02 12:58S 30°38' E 035°40'1013.9
2017-Nov-02 12:13S 30°33' E 035°50'313.5
2017-Nov-02 11:58S 30°32' E 035°54'813.4
2017-Nov-02 11:21S 30°29' E 036°03'513.2
2017-Nov-02 11:00S 30°27' E 036°08'712.9
2017-Nov-02 10:29S 30°24' E 036°15'2211.7
2017-Nov-02 08:34S 30°15' E 036°38'112.1
2017-Nov-02 08:27S 30°14' E 036°40'512.1
2017-Nov-02 08:00S 30°11' E 036°45'3412.0
2017-Nov-02 05:11S 29°55' E 037°19'413.0
2017-Nov-02 04:53S 29°56' E 037°23'912.8
2017-Nov-02 04:11S 29°53' E 037°33'513.0
2017-Nov-02 03:48S 29°51' E 037°39'  

Dump ship's entire track history